Doraville, GA (30360)

5:47 PM EDT on July 28, 2016 (GMT -0400)
Dunwoody | | Change Station

Elev 978 ft 33.93 °N, 84.31 °W | Updated 8 minutes ago

Thunderstorms and Rain
Thunderstorm Rain
80.8 °F
Feels Like 86 °F
N
1.1
Wind Variable Wind from SE

Today
High -- | Low -- °F
--% Chance of Precip.
Yesterday
High -- | Low -- °F
Precip. -- in
Pressure 29.97 in
Visibility 10.0 miles
Clouds Mostly Cloudy 4300 ft
Mostly Cloudy 6500 ft
Mostly Cloudy 8000 ft
Heat Index 86 °F
Dew Point 74 °F
Humidity 79%
Rainfall 0.25 in
Snow Depth Not available.
6:46 AM 8:40 PM
Waning Crescent, 28% visible
SPECI KPDK 282056Z 23013G18KT 10SM TSRA BKN043 BKN065 BKN080 31/20 A2997 RMK AO2 RAB56 TSB56 P0000 T03060200
Pressure 29.97 in
Visibility 10.0 miles
Clouds Mostly Cloudy 4300 ft
Mostly Cloudy 6500 ft
Mostly Cloudy 8000 ft
Heat Index 86 °F
Dew Point 74 °F
Humidity 79%
Rainfall 0.25 in
Snow Depth Not available.
6:46 AM 8:40 PM
Waning Crescent, 28% visible
SPECI KPDK 282056Z 23013G18KT 10SM TSRA BKN043 BKN065 BKN080 31/20 A2997 RMK AO2 RAB56 TSB56 P0000 T03060200

10-Day Weather Forecast

Almanac

Astronomy

Jul. 28, 2016 Rise Set
Actual Time
Civil Twilight
Nautical Twilight
Astronomical Twilight
Moon
Length of Visible Light
Length of Day
Tomorrow will be .
, % of the Moon is Illuminated

Today's Extremes

State Highs State Lows

Community

WunderPhotos

Upload Photos

1,928,224 photos uploaded!

WunderBlog® & News

Nearby

Air Quality

  Air Quality AQ Index Pollutant
Not available.

Snow Depth

Station Depth Elevation

Earthquake Activity

City Distance Mag. Time & Date
Minimum magnitude displayed is 2.5.

Coastal Water Temperatures

Place Temperature

Stations

Nearby Weather Stations

Station Location Temp. Windchill Dew Point Humidity Wind Precip. Elev Updated Type
                   

Watches & Warnings

There are currently no watches in effect.